sensor_id;sensor_type;location;lat;lon;timestamp;temperature;humidity
17296;DHT22;8766;51.480;6.872;2022-12-20T00:00:44;10.40;70.50
17296;DHT22;8766;51.480;6.872;2022-12-20T00:03:11;10.40;70.50
17296;DHT22;8766;51.480;6.872;2022-12-20T00:05:40;10.40;70.50
17296;DHT22;8766;51.480;6.872;2022-12-20T00:08:09;10.40;70.50
17296;DHT22;8766;51.480;6.872;2022-12-20T00:10:36;10.40;70.50
17296;DHT22;8766;51.480;6.872;2022-12-20T00:13:03;10.40;70.50
17296;DHT22;8766;51.480;6.872;2022-12-20T00:15:31;10.40;70.60
17296;DHT22;8766;51.480;6.872;2022-12-20T00:17:58;10.40;70.60
17296;DHT22;8766;51.480;6.872;2022-12-20T00:20:26;10.40;70.60
17296;DHT22;8766;51.480;6.872;2022-12-20T00:22:55;10.40;70.60
17296;DHT22;8766;51.480;6.872;2022-12-20T00:25:22;10.40;70.70
17296;DHT22;8766;51.480;6.872;2022-12-20T00:27:49;10.40;70.70
17296;DHT22;8766;51.480;6.872;2022-12-20T00:30:17;10.40;70.70
17296;DHT22;8766;51.480;6.872;2022-12-20T00:32:44;10.40;70.70
17296;DHT22;8766;51.480;6.872;2022-12-20T00:35:11;10.40;70.70
17296;DHT22;8766;51.480;6.872;2022-12-20T00:37:38;10.40;70.70
17296;DHT22;8766;51.480;6.872;2022-12-20T00:40:07;10.40;70.70
17296;DHT22;8766;51.480;6.872;2022-12-20T00:42:34;10.40;70.70
17296;DHT22;8766;51.480;6.872;2022-12-20T00:45:02;10.40;70.80
17296;DHT22;8766;51.480;6.872;2022-12-20T00:47:29;10.40;70.80
17296;DHT22;8766;51.480;6.872;2022-12-20T00:49:56;10.40;70.90
17296;DHT22;8766;51.480;6.872;2022-12-20T00:52:22;10.40;70.90
17296;DHT22;8766;51.480;6.872;2022-12-20T00:54:49;10.40;70.90
17296;DHT22;8766;51.480;6.872;2022-12-20T00:57:18;10.40;70.90
17296;DHT22;8766;51.480;6.872;2022-12-20T00:59:44;10.40;70.90
17296;DHT22;8766;51.480;6.872;2022-12-20T01:02:11;10.40;70.90
17296;DHT22;8766;51.480;6.872;2022-12-20T01:04:38;10.40;70.90
17296;DHT22;8766;51.480;6.872;2022-12-20T01:07:05;10.40;70.80
17296;DHT22;8766;51.480;6.872;2022-12-20T01:09:32;10.50;70.80
17296;DHT22;8766;51.480;6.872;2022-12-20T01:11:59;10.50;70.80
17296;DHT22;8766;51.480;6.872;2022-12-20T01:14:27;10.50;70.80
17296;DHT22;8766;51.480;6.872;2022-12-20T01:16:54;10.50;70.70
17296;DHT22;8766;51.480;6.872;2022-12-20T01:19:21;10.50;70.70
17296;DHT22;8766;51.480;6.872;2022-12-20T01:21:48;10.50;70.70
17296;DHT22;8766;51.480;6.872;2022-12-20T01:24:16;10.50;70.70
17296;DHT22;8766;51.480;6.872;2022-12-20T01:26:45;10.60;70.80
17296;DHT22;8766;51.480;6.872;2022-12-20T01:29:12;10.60;70.80
17296;DHT22;8766;51.480;6.872;2022-12-20T01:31:41;10.60;70.80
17296;DHT22;8766;51.480;6.872;2022-12-20T01:34:08;10.60;70.80
17296;DHT22;8766;51.480;6.872;2022-12-20T01:36:36;10.60;70.70
17296;DHT22;8766;51.480;6.872;2022-12-20T01:39:06;10.60;70.70
17296;DHT22;8766;51.480;6.872;2022-12-20T01:41:35;10.60;70.70
17296;DHT22;8766;51.480;6.872;2022-12-20T01:44:05;10.60;70.60
17296;DHT22;8766;51.480;6.872;2022-12-20T01:46:34;10.70;70.70
17296;DHT22;8766;51.480;6.872;2022-12-20T01:49:05;10.70;70.70
17296;DHT22;8766;51.480;6.872;2022-12-20T01:51:36;10.70;70.70
17296;DHT22;8766;51.480;6.872;2022-12-20T01:54:07;10.70;70.70
17296;DHT22;8766;51.480;6.872;2022-12-20T01:56:37;10.70;70.70
17296;DHT22;8766;51.480;6.872;2022-12-20T01:59:05;10.70;70.70
17296;DHT22;8766;51.480;6.872;2022-12-20T02:01:33;10.70;70.70
17296;DHT22;8766;51.480;6.872;2022-12-20T02:04:00;10.70;70.80
17296;DHT22;8766;51.480;6.872;2022-12-20T02:06:29;10.70;70.80
17296;DHT22;8766;51.480;6.872;2022-12-20T02:08:58;10.70;70.80
17296;DHT22;8766;51.480;6.872;2022-12-20T02:11:39;10.70;70.80
17296;DHT22;8766;51.480;6.872;2022-12-20T02:14:17;10.70;70.90
17296;DHT22;8766;51.480;6.872;2022-12-20T02:16:53;10.70;70.90
17296;DHT22;8766;51.480;6.872;2022-12-20T02:19:44;10.70;70.90
17296;DHT22;8766;51.480;6.872;2022-12-20T02:22:22;10.70;70.90
17296;DHT22;8766;51.480;6.872;2022-12-20T02:25:21;10.70;70.90
17296;DHT22;8766;51.480;6.872;2022-12-20T02:27:58;10.60;70.90
17296;DHT22;8766;51.480;6.872;2022-12-20T02:30:31;10.70;70.90
17296;DHT22;8766;51.480;6.872;2022-12-20T02:33:02;10.70;70.90
17296;DHT22;8766;51.480;6.872;2022-12-20T02:35:31;10.70;70.90
17296;DHT22;8766;51.480;6.872;2022-12-20T02:38:00;10.70;70.90
17296;DHT22;8766;51.480;6.872;2022-12-20T02:40:31;10.70;70.90
17296;DHT22;8766;51.480;6.872;2022-12-20T02:43:03;10.70;70.90
17296;DHT22;8766;51.480;6.872;2022-12-20T02:45:53;10.70;70.90
17296;DHT22;8766;51.480;6.872;2022-12-20T02:48:21;10.70;70.90
17296;DHT22;8766;51.480;6.872;2022-12-20T02:50:51;10.70;70.90
17296;DHT22;8766;51.480;6.872;2022-12-20T02:53:20;10.70;70.90
17296;DHT22;8766;51.480;6.872;2022-12-20T02:55:51;10.70;71.00
17296;DHT22;8766;51.480;6.872;2022-12-20T02:58:24;10.70;71.00
17296;DHT22;8766;51.480;6.872;2022-12-20T03:00:55;10.70;71.10
17296;DHT22;8766;51.480;6.872;2022-12-20T03:03:23;10.60;71.00
17296;DHT22;8766;51.480;6.872;2022-12-20T03:05:52;10.60;71.10
17296;DHT22;8766;51.480;6.872;2022-12-20T03:08:20;10.60;71.20
17296;DHT22;8766;51.480;6.872;2022-12-20T03:10:48;10.60;71.20
17296;DHT22;8766;51.480;6.872;2022-12-20T03:13:15;10.60;71.30
17296;DHT22;8766;51.480;6.872;2022-12-20T03:15:42;10.60;71.30
17296;DHT22;8766;51.480;6.872;2022-12-20T03:18:11;10.60;71.40
17296;DHT22;8766;51.480;6.872;2022-12-20T03:20:38;10.60;71.40
17296;DHT22;8766;51.480;6.872;2022-12-20T03:23:06;10.60;71.40
17296;DHT22;8766;51.480;6.872;2022-12-20T03:25:33;10.50;71.40
17296;DHT22;8766;51.480;6.872;2022-12-20T03:28:00;10.50;71.40
17296;DHT22;8766;51.480;6.872;2022-12-20T03:30:26;10.50;71.50
17296;DHT22;8766;51.480;6.872;2022-12-20T03:32:53;10.50;71.50
17296;DHT22;8766;51.480;6.872;2022-12-20T03:35:22;10.50;71.60
17296;DHT22;8766;51.480;6.872;2022-12-20T03:37:48;10.50;71.60
17296;DHT22;8766;51.480;6.872;2022-12-20T03:40:15;10.50;71.70
17296;DHT22;8766;51.480;6.872;2022-12-20T03:42:42;10.50;71.70
17296;DHT22;8766;51.480;6.872;2022-12-20T03:45:09;10.50;71.80
17296;DHT22;8766;51.480;6.872;2022-12-20T03:47:36;10.40;71.70
17296;DHT22;8766;51.480;6.872;2022-12-20T03:50:04;10.40;71.80
17296;DHT22;8766;51.480;6.872;2022-12-20T03:52:33;10.40;71.80
17296;DHT22;8766;51.480;6.872;2022-12-20T03:55:00;10.40;71.90
17296;DHT22;8766;51.480;6.872;2022-12-20T03:57:28;10.40;71.90
17296;DHT22;8766;51.480;6.872;2022-12-20T03:59:54;10.40;71.90
17296;DHT22;8766;51.480;6.872;2022-12-20T04:02:22;10.40;72.00
17296;DHT22;8766;51.480;6.872;2022-12-20T04:04:49;10.40;72.00
17296;DHT22;8766;51.480;6.872;2022-12-20T04:07:16;10.40;72.00
17296;DHT22;8766;51.480;6.872;2022-12-20T04:09:44;10.40;72.00
17296;DHT22;8766;51.480;6.872;2022-12-20T04:12:11;10.40;72.10
17296;DHT22;8766;51.480;6.872;2022-12-20T04:14:38;10.40;72.10
17296;DHT22;8766;51.480;6.872;2022-12-20T04:17:05;10.40;72.10
17296;DHT22;8766;51.480;6.872;2022-12-20T04:19:32;10.40;72.10
17296;DHT22;8766;51.480;6.872;2022-12-20T04:21:59;10.40;72.10
17296;DHT22;8766;51.480;6.872;2022-12-20T04:24:26;10.40;72.10
17296;DHT22;8766;51.480;6.872;2022-12-20T04:26:54;10.40;72.10
17296;DHT22;8766;51.480;6.872;2022-12-20T04:29:21;10.40;72.10
17296;DHT22;8766;51.480;6.872;2022-12-20T04:31:48;10.40;72.10
17296;DHT22;8766;51.480;6.872;2022-12-20T04:34:15;10.40;72.20
17296;DHT22;8766;51.480;6.872;2022-12-20T04:36:42;10.40;72.20
17296;DHT22;8766;51.480;6.872;2022-12-20T04:39:09;10.40;72.50
17296;DHT22;8766;51.480;6.872;2022-12-20T04:41:36;10.40;72.10
17296;DHT22;8766;51.480;6.872;2022-12-20T04:44:04;10.40;72.10
17296;DHT22;8766;51.480;6.872;2022-12-20T04:46:31;10.40;72.10
17296;DHT22;8766;51.480;6.872;2022-12-20T04:48:58;10.40;72.10
17296;DHT22;8766;51.480;6.872;2022-12-20T04:51:25;10.40;72.20
17296;DHT22;8766;51.480;6.872;2022-12-20T04:53:52;10.40;72.20
17296;DHT22;8766;51.480;6.872;2022-12-20T04:56:20;10.40;72.20
17296;DHT22;8766;51.480;6.872;2022-12-20T04:58:49;10.40;72.20
17296;DHT22;8766;51.480;6.872;2022-12-20T05:01:18;10.40;72.20
17296;DHT22;8766;51.480;6.872;2022-12-20T05:03:46;10.40;72.20
17296;DHT22;8766;51.480;6.872;2022-12-20T05:06:13;10.40;72.20
17296;DHT22;8766;51.480;6.872;2022-12-20T05:08:41;10.40;72.20
17296;DHT22;8766;51.480;6.872;2022-12-20T05:11:08;10.50;72.30
17296;DHT22;8766;51.480;6.872;2022-12-20T05:13:35;10.50;72.30
17296;DHT22;8766;51.480;6.872;2022-12-20T05:16:02;10.40;72.30
17296;DHT22;8766;51.480;6.872;2022-12-20T05:18:31;10.40;72.40
17296;DHT22;8766;51.480;6.872;2022-12-20T05:20:59;10.40;72.40
17296;DHT22;8766;51.480;6.872;2022-12-20T05:23:45;10.40;72.40
17296;DHT22;8766;51.480;6.872;2022-12-20T05:26:32;10.40;72.40
17296;DHT22;8766;51.480;6.872;2022-12-20T05:28:59;10.40;72.50
17296;DHT22;8766;51.480;6.872;2022-12-20T05:31:26;10.40;72.50
17296;DHT22;8766;51.480;6.872;2022-12-20T05:33:54;10.40;72.50
17296;DHT22;8766;51.480;6.872;2022-12-20T05:36:21;10.40;72.50
17296;DHT22;8766;51.480;6.872;2022-12-20T05:38:48;10.40;72.50
17296;DHT22;8766;51.480;6.872;2022-12-20T05:41:24;10.40;72.50
17296;DHT22;8766;51.480;6.872;2022-12-20T05:44:12;10.50;72.60
17296;DHT22;8766;51.480;6.872;2022-12-20T05:47:05;10.50;72.60
17296;DHT22;8766;51.480;6.872;2022-12-20T05:49:56;10.40;72.50
17296;DHT22;8766;51.480;6.872;2022-12-20T05:52:50;10.50;72.60
17296;DHT22;8766;51.480;6.872;2022-12-20T05:58:50;10.50;72.60
17296;DHT22;8766;51.480;6.872;2022-12-20T06:04:50;10.50;72.60
17296;DHT22;8766;51.480;6.872;2022-12-20T06:07:18;10.50;72.60
17296;DHT22;8766;51.480;6.872;2022-12-20T06:09:45;10.50;72.60
17296;DHT22;8766;51.480;6.872;2022-12-20T06:12:12;10.50;72.60
17296;DHT22;8766;51.480;6.872;2022-12-20T06:14:39;10.50;72.60
17296;DHT22;8766;51.480;6.872;2022-12-20T06:17:06;10.50;72.60
17296;DHT22;8766;51.480;6.872;2022-12-20T06:19:33;10.50;72.60
17296;DHT22;8766;51.480;6.872;2022-12-20T06:22:00;10.50;72.50
17296;DHT22;8766;51.480;6.872;2022-12-20T06:24:29;10.60;72.60
17296;DHT22;8766;51.480;6.872;2022-12-20T06:26:56;10.60;72.60
17296;DHT22;8766;51.480;6.872;2022-12-20T06:29:23;10.60;72.60
17296;DHT22;8766;51.480;6.872;2022-12-20T06:31:50;10.60;73.20
17296;DHT22;8766;51.480;6.872;2022-12-20T06:34:17;10.60;72.60
17296;DHT22;8766;51.480;6.872;2022-12-20T06:36:44;10.60;72.50
17296;DHT22;8766;51.480;6.872;2022-12-20T06:39:11;10.60;72.50
17296;DHT22;8766;51.480;6.872;2022-12-20T06:41:40;10.60;72.50
17296;DHT22;8766;51.480;6.872;2022-12-20T06:44:07;10.70;72.60
17296;DHT22;8766;51.480;6.872;2022-12-20T06:46:33;10.70;72.60
17296;DHT22;8766;51.480;6.872;2022-12-20T06:49:00;10.70;72.50
17296;DHT22;8766;51.480;6.872;2022-12-20T06:51:27;10.70;72.50
17296;DHT22;8766;51.480;6.872;2022-12-20T06:53:54;10.70;72.50
17296;DHT22;8766;51.480;6.872;2022-12-20T06:56:21;10.70;72.50
17296;DHT22;8766;51.480;6.872;2022-12-20T06:58:49;10.70;72.50
17296;DHT22;8766;51.480;6.872;2022-12-20T07:01:16;10.70;72.50
17296;DHT22;8766;51.480;6.872;2022-12-20T07:03:43;10.70;72.50
17296;DHT22;8766;51.480;6.872;2022-12-20T07:06:10;10.70;72.50
17296;DHT22;8766;51.480;6.872;2022-12-20T07:08:37;10.70;72.50
17296;DHT22;8766;51.480;6.872;2022-12-20T07:11:05;10.70;72.60
17296;DHT22;8766;51.480;6.872;2022-12-20T07:13:32;10.70;72.50
17296;DHT22;8766;51.480;6.872;2022-12-20T07:16:01;10.70;72.60
17296;DHT22;8766;51.480;6.872;2022-12-20T07:18:29;10.80;72.60
17296;DHT22;8766;51.480;6.872;2022-12-20T07:20:58;10.80;72.60
17296;DHT22;8766;51.480;6.872;2022-12-20T07:23:25;10.80;72.60
17296;DHT22;8766;51.480;6.872;2022-12-20T07:25:53;10.80;72.60
17296;DHT22;8766;51.480;6.872;2022-12-20T07:28:21;10.80;72.60
17296;DHT22;8766;51.480;6.872;2022-12-20T07:30:48;10.80;72.60
17296;DHT22;8766;51.480;6.872;2022-12-20T07:33:16;10.80;72.60
17296;DHT22;8766;51.480;6.872;2022-12-20T07:35:44;10.80;72.70
17296;DHT22;8766;51.480;6.872;2022-12-20T07:38:11;10.80;72.70
17296;DHT22;8766;51.480;6.872;2022-12-20T07:40:39;10.80;72.70
17296;DHT22;8766;51.480;6.872;2022-12-20T07:43:07;10.80;72.60
17296;DHT22;8766;51.480;6.872;2022-12-20T07:45:34;10.80;72.70
17296;DHT22;8766;51.480;6.872;2022-12-20T07:48:02;10.80;72.70
17296;DHT22;8766;51.480;6.872;2022-12-20T07:50:31;10.80;72.70
17296;DHT22;8766;51.480;6.872;2022-12-20T07:52:59;10.90;72.70
17296;DHT22;8766;51.480;6.872;2022-12-20T07:55:26;10.90;72.70
17296;DHT22;8766;51.480;6.872;2022-12-20T07:57:59;10.80;72.70
17296;DHT22;8766;51.480;6.872;2022-12-20T08:00:27;10.80;72.80
17296;DHT22;8766;51.480;6.872;2022-12-20T08:02:56;10.80;72.80
17296;DHT22;8766;51.480;6.872;2022-12-20T08:05:24;10.80;72.80
17296;DHT22;8766;51.480;6.872;2022-12-20T08:07:54;10.80;72.80
17296;DHT22;8766;51.480;6.872;2022-12-20T08:10:22;10.80;72.80
17296;DHT22;8766;51.480;6.872;2022-12-20T08:12:49;10.90;72.90
17296;DHT22;8766;51.480;6.872;2022-12-20T08:15:17;10.90;72.70
17296;DHT22;8766;51.480;6.872;2022-12-20T08:17:47;11.00;72.60
17296;DHT22;8766;51.480;6.872;2022-12-20T08:20:14;11.00;72.50
17296;DHT22;8766;51.480;6.872;2022-12-20T08:22:41;11.10;73.20
17296;DHT22;8766;51.480;6.872;2022-12-20T08:25:09;11.10;72.30
17296;DHT22;8766;51.480;6.872;2022-12-20T08:27:37;11.20;72.20
17296;DHT22;8766;51.480;6.872;2022-12-20T08:30:05;11.20;72.80
17296;DHT22;8766;51.480;6.872;2022-12-20T08:32:33;11.20;72.10
17296;DHT22;8766;51.480;6.872;2022-12-20T08:35:01;11.20;72.10
17296;DHT22;8766;51.480;6.872;2022-12-20T08:37:28;11.20;72.20
17296;DHT22;8766;51.480;6.872;2022-12-20T08:39:55;11.20;72.20
17296;DHT22;8766;51.480;6.872;2022-12-20T08:42:24;11.20;72.20
17296;DHT22;8766;51.480;6.872;2022-12-20T08:44:50;11.20;72.20
17296;DHT22;8766;51.480;6.872;2022-12-20T08:47:17;11.20;72.10
17296;DHT22;8766;51.480;6.872;2022-12-20T08:49:44;11.30;72.20
17296;DHT22;8766;51.480;6.872;2022-12-20T08:52:11;11.30;72.10
17296;DHT22;8766;51.480;6.872;2022-12-20T08:54:38;11.30;72.00
17296;DHT22;8766;51.480;6.872;2022-12-20T08:57:05;11.40;72.00
17296;DHT22;8766;51.480;6.872;2022-12-20T08:59:33;11.40;72.00
17296;DHT22;8766;51.480;6.872;2022-12-20T09:02:00;11.40;72.00
17296;DHT22;8766;51.480;6.872;2022-12-20T09:04:27;11.40;72.10
17296;DHT22;8766;51.480;6.872;2022-12-20T09:06:54;11.40;72.00
17296;DHT22;8766;51.480;6.872;2022-12-20T09:09:21;11.40;72.00
17296;DHT22;8766;51.480;6.872;2022-12-20T09:11:48;11.40;72.00
17296;DHT22;8766;51.480;6.872;2022-12-20T09:14:14;11.40;72.00
17296;DHT22;8766;51.480;6.872;2022-12-20T09:16:43;11.50;71.90
17296;DHT22;8766;51.480;6.872;2022-12-20T09:19:11;11.50;71.90
17296;DHT22;8766;51.480;6.872;2022-12-20T09:21:39;11.50;72.00
17296;DHT22;8766;51.480;6.872;2022-12-20T09:24:07;11.50;71.90
17296;DHT22;8766;51.480;6.872;2022-12-20T09:26:34;11.50;71.80
17296;DHT22;8766;51.480;6.872;2022-12-20T09:29:01;11.50;71.80
17296;DHT22;8766;51.480;6.872;2022-12-20T09:31:29;11.50;71.80
17296;DHT22;8766;51.480;6.872;2022-12-20T09:33:58;11.50;71.80
17296;DHT22;8766;51.480;6.872;2022-12-20T09:36:27;11.50;71.90
17296;DHT22;8766;51.480;6.872;2022-12-20T09:38:55;11.50;71.90
17296;DHT22;8766;51.480;6.872;2022-12-20T09:41:28;11.60;71.90
17296;DHT22;8766;51.480;6.872;2022-12-20T09:43:57;11.60;71.90
17296;DHT22;8766;51.480;6.872;2022-12-20T09:46:24;11.60;71.80
17296;DHT22;8766;51.480;6.872;2022-12-20T09:48:52;11.70;71.70
17296;DHT22;8766;51.480;6.872;2022-12-20T09:51:39;11.70;71.70
17296;DHT22;8766;51.480;6.872;2022-12-20T09:54:17;11.70;71.70
17296;DHT22;8766;51.480;6.872;2022-12-20T09:56:51;11.70;71.60
17296;DHT22;8766;51.480;6.872;2022-12-20T09:59:22;11.80;71.60
17296;DHT22;8766;51.480;6.872;2022-12-20T10:01:50;11.80;71.40
17296;DHT22;8766;51.480;6.872;2022-12-20T10:04:20;11.80;71.40
17296;DHT22;8766;51.480;6.872;2022-12-20T10:06:57;11.90;71.40
17296;DHT22;8766;51.480;6.872;2022-12-20T10:09:42;11.90;71.40
17296;DHT22;8766;51.480;6.872;2022-12-20T10:12:19;11.90;71.40
17296;DHT22;8766;51.480;6.872;2022-12-20T10:14:58;11.90;71.40
17296;DHT22;8766;51.480;6.872;2022-12-20T10:17:41;11.90;71.40
17296;DHT22;8766;51.480;6.872;2022-12-20T10:20:25;11.90;71.40
17296;DHT22;8766;51.480;6.872;2022-12-20T10:22:59;11.90;71.40
17296;DHT22;8766;51.480;6.872;2022-12-20T10:25:29;11.90;71.40
17296;DHT22;8766;51.480;6.872;2022-12-20T10:27:57;11.90;71.40
17296;DHT22;8766;51.480;6.872;2022-12-20T10:30:27;11.90;71.40
17296;DHT22;8766;51.480;6.872;2022-12-20T10:33:07;12.00;71.40
17296;DHT22;8766;51.480;6.872;2022-12-20T10:36:17;12.00;71.20
17296;DHT22;8766;51.480;6.872;2022-12-20T10:39:08;12.00;71.20
17296;DHT22;8766;51.480;6.872;2022-12-20T10:41:47;12.10;71.20
17296;DHT22;8766;51.480;6.872;2022-12-20T10:44:19;12.00;71.10
17296;DHT22;8766;51.480;6.872;2022-12-20T10:46:50;12.00;71.20
17296;DHT22;8766;51.480;6.872;2022-12-20T10:49:29;12.10;71.20
17296;DHT22;8766;51.480;6.872;2022-12-20T10:51:58;12.10;71.20
17296;DHT22;8766;51.480;6.872;2022-12-20T10:54:33;12.20;71.10
17296;DHT22;8766;51.480;6.872;2022-12-20T10:57:02;12.10;71.10
17296;DHT22;8766;51.480;6.872;2022-12-20T10:59:33;12.10;71.10
17296;DHT22;8766;51.480;6.872;2022-12-20T11:02:01;12.10;71.20
17296;DHT22;8766;51.480;6.872;2022-12-20T11:04:30;12.10;71.20
17296;DHT22;8766;51.480;6.872;2022-12-20T11:06:58;12.10;71.20
17296;DHT22;8766;51.480;6.872;2022-12-20T11:09:29;12.10;71.20
17296;DHT22;8766;51.480;6.872;2022-12-20T11:12:02;12.10;71.20
17296;DHT22;8766;51.480;6.872;2022-12-20T11:14:32;12.20;71.30
17296;DHT22;8766;51.480;6.872;2022-12-20T11:17:02;12.10;71.20
17296;DHT22;8766;51.480;6.872;2022-12-20T11:22:37;12.10;71.30
17296;DHT22;8766;51.480;6.872;2022-12-20T11:25:24;12.10;71.40
17296;DHT22;8766;51.480;6.872;2022-12-20T11:28:06;12.10;71.50
17296;DHT22;8766;51.480;6.872;2022-12-20T11:30:45;12.10;71.50
17296;DHT22;8766;51.480;6.872;2022-12-20T11:33:46;12.00;71.50
17296;DHT22;8766;51.480;6.872;2022-12-20T11:36:24;12.10;71.60
17296;DHT22;8766;51.480;6.872;2022-12-20T11:38:59;12.10;71.50
17296;DHT22;8766;51.480;6.872;2022-12-20T11:41:36;12.10;71.50
17296;DHT22;8766;51.480;6.872;2022-12-20T11:44:16;12.10;71.50
17296;DHT22;8766;51.480;6.872;2022-12-20T11:47:06;12.10;71.50
17296;DHT22;8766;51.480;6.872;2022-12-20T11:49:52;12.10;71.50
17296;DHT22;8766;51.480;6.872;2022-12-20T11:52:33;12.10;71.50
17296;DHT22;8766;51.480;6.872;2022-12-20T11:55:06;12.10;71.40
17296;DHT22;8766;51.480;6.872;2022-12-20T11:57:38;12.10;71.50
17296;DHT22;8766;51.480;6.872;2022-12-20T12:00:12;12.10;71.50
17296;DHT22;8766;51.480;6.872;2022-12-20T12:02:43;12.10;71.50
17296;DHT22;8766;51.480;6.872;2022-12-20T12:05:19;12.10;71.50
17296;DHT22;8766;51.480;6.872;2022-12-20T12:07:52;12.10;71.50
17296;DHT22;8766;51.480;6.872;2022-12-20T12:10:23;12.20;71.50
17296;DHT22;8766;51.480;6.872;2022-12-20T12:12:58;12.20;71.40
17296;DHT22;8766;51.480;6.872;2022-12-20T12:15:31;12.20;71.40
17296;DHT22;8766;51.480;6.872;2022-12-20T12:18:03;12.20;71.40
17296;DHT22;8766;51.480;6.872;2022-12-20T12:20:35;12.20;71.40
17296;DHT22;8766;51.480;6.872;2022-12-20T12:23:11;12.20;71.30
17296;DHT22;8766;51.480;6.872;2022-12-20T12:25:41;12.30;71.40
17296;DHT22;8766;51.480;6.872;2022-12-20T12:28:11;12.30;71.30
17296;DHT22;8766;51.480;6.872;2022-12-20T12:30:40;12.30;71.20
17296;DHT22;8766;51.480;6.872;2022-12-20T12:33:11;12.30;71.20
17296;DHT22;8766;51.480;6.872;2022-12-20T12:36:00;12.30;71.20
17296;DHT22;8766;51.480;6.872;2022-12-20T12:38:59;12.30;71.20
17296;DHT22;8766;51.480;6.872;2022-12-20T12:41:52;12.40;71.20
17296;DHT22;8766;51.480;6.872;2022-12-20T12:44:39;12.40;71.20
17296;DHT22;8766;51.480;6.872;2022-12-20T12:47:13;12.40;71.20
17296;DHT22;8766;51.480;6.872;2022-12-20T12:49:42;12.40;71.20
17296;DHT22;8766;51.480;6.872;2022-12-20T12:52:36;12.40;71.10
17296;DHT22;8766;51.480;6.872;2022-12-20T12:55:40;12.40;71.10
17296;DHT22;8766;51.480;6.872;2022-12-20T12:58:37;12.50;71.00
17296;DHT22;8766;51.480;6.872;2022-12-20T13:01:08;12.50;71.00
17296;DHT22;8766;51.480;6.872;2022-12-20T13:03:42;12.50;71.00
17296;DHT22;8766;51.480;6.872;2022-12-20T13:09:37;12.50;71.00
17296;DHT22;8766;51.480;6.872;2022-12-20T13:15:48;12.40;71.40
17296;DHT22;8766;51.480;6.872;2022-12-20T13:18:22;12.30;71.60
17296;DHT22;8766;51.480;6.872;2022-12-20T13:27:34;12.10;71.90
17296;DHT22;8766;51.480;6.872;2022-12-20T13:33:38;12.00;72.10
17296;DHT22;8766;51.480;6.872;2022-12-20T13:36:29;12.00;72.20
17296;DHT22;8766;51.480;6.872;2022-12-20T13:38:58;12.00;72.20
17296;DHT22;8766;51.480;6.872;2022-12-20T13:41:44;12.00;72.20
17296;DHT22;8766;51.480;6.872;2022-12-20T13:47:41;11.90;72.30
17296;DHT22;8766;51.480;6.872;2022-12-20T13:50:31;11.90;72.40
17296;DHT22;8766;51.480;6.872;2022-12-20T13:53:00;11.90;72.40
17296;DHT22;8766;51.480;6.872;2022-12-20T13:55:34;11.90;72.50
17296;DHT22;8766;51.480;6.872;2022-12-20T13:58:08;11.90;72.60
17296;DHT22;8766;51.480;6.872;2022-12-20T14:00:36;11.90;72.70
17296;DHT22;8766;51.480;6.872;2022-12-20T14:03:04;11.90;72.70
17296;DHT22;8766;51.480;6.872;2022-12-20T14:05:37;11.80;72.70
17296;DHT22;8766;51.480;6.872;2022-12-20T14:08:11;11.80;72.80
17296;DHT22;8766;51.480;6.872;2022-12-20T14:10:41;11.80;72.80
17296;DHT22;8766;51.480;6.872;2022-12-20T14:13:19;11.80;72.90
17296;DHT22;8766;51.480;6.872;2022-12-20T14:15:46;11.80;73.00
17296;DHT22;8766;51.480;6.872;2022-12-20T14:18:16;11.80;73.00
17296;DHT22;8766;51.480;6.872;2022-12-20T14:20:47;11.80;73.00
17296;DHT22;8766;51.480;6.872;2022-12-20T14:23:16;11.80;73.00
17296;DHT22;8766;51.480;6.872;2022-12-20T14:25:47;11.70;73.00
17296;DHT22;8766;51.480;6.872;2022-12-20T14:28:22;11.70;73.10
17296;DHT22;8766;51.480;6.872;2022-12-20T14:30:51;11.70;73.10
17296;DHT22;8766;51.480;6.872;2022-12-20T14:33:19;11.70;73.10
17296;DHT22;8766;51.480;6.872;2022-12-20T14:35:49;11.70;73.20
17296;DHT22;8766;51.480;6.872;2022-12-20T14:38:21;11.70;73.20
17296;DHT22;8766;51.480;6.872;2022-12-20T14:40:49;11.70;73.20
17296;DHT22;8766;51.480;6.872;2022-12-20T14:43:24;11.70;73.20
17296;DHT22;8766;51.480;6.872;2022-12-20T14:46:16;11.70;73.20
17296;DHT22;8766;51.480;6.872;2022-12-20T14:48:44;11.70;73.30
17296;DHT22;8766;51.480;6.872;2022-12-20T14:51:19;11.70;73.20
17296;DHT22;8766;51.480;6.872;2022-12-20T14:53:49;11.70;73.30
17296;DHT22;8766;51.480;6.872;2022-12-20T14:56:19;11.60;73.90
17296;DHT22;8766;51.480;6.872;2022-12-20T14:59:00;11.60;73.30
17296;DHT22;8766;51.480;6.872;2022-12-20T15:01:30;11.60;73.30
17296;DHT22;8766;51.480;6.872;2022-12-20T15:03:58;11.60;73.50
17296;DHT22;8766;51.480;6.872;2022-12-20T15:06:43;11.60;73.50
17296;DHT22;8766;51.480;6.872;2022-12-20T15:09:10;11.60;73.50
17296;DHT22;8766;51.480;6.872;2022-12-20T15:11:37;11.60;73.50
17296;DHT22;8766;51.480;6.872;2022-12-20T15:14:14;11.60;73.60
17296;DHT22;8766;51.480;6.872;2022-12-20T15:16:46;11.60;73.70
17296;DHT22;8766;51.480;6.872;2022-12-20T15:19:13;11.50;73.60
17296;DHT22;8766;51.480;6.872;2022-12-20T15:21:42;11.50;73.60
17296;DHT22;8766;51.480;6.872;2022-12-20T15:24:11;11.50;73.70
17296;DHT22;8766;51.480;6.872;2022-12-20T15:26:38;11.50;73.70
17296;DHT22;8766;51.480;6.872;2022-12-20T15:29:06;11.50;73.70
17296;DHT22;8766;51.480;6.872;2022-12-20T15:31:36;11.50;73.70
17296;DHT22;8766;51.480;6.872;2022-12-20T15:34:03;11.50;73.80
17296;DHT22;8766;51.480;6.872;2022-12-20T15:36:37;11.50;73.80
17296;DHT22;8766;51.480;6.872;2022-12-20T15:39:05;11.50;73.80
17296;DHT22;8766;51.480;6.872;2022-12-20T15:41:33;11.50;73.80
17296;DHT22;8766;51.480;6.872;2022-12-20T15:44:04;11.50;73.90
17296;DHT22;8766;51.480;6.872;2022-12-20T15:46:32;11.50;73.90
17296;DHT22;8766;51.480;6.872;2022-12-20T15:48:59;11.50;73.90
17296;DHT22;8766;51.480;6.872;2022-12-20T15:51:29;11.50;73.90
17296;DHT22;8766;51.480;6.872;2022-12-20T15:53:56;11.50;73.90
17296;DHT22;8766;51.480;6.872;2022-12-20T15:56:26;11.50;73.90
17296;DHT22;8766;51.480;6.872;2022-12-20T15:58:53;11.40;73.90
17296;DHT22;8766;51.480;6.872;2022-12-20T16:01:21;11.50;73.90
17296;DHT22;8766;51.480;6.872;2022-12-20T16:03:49;11.40;73.90
17296;DHT22;8766;51.480;6.872;2022-12-20T16:06:16;11.50;74.00
17296;DHT22;8766;51.480;6.872;2022-12-20T16:08:43;11.40;74.00
17296;DHT22;8766;51.480;6.872;2022-12-20T16:11:18;11.40;74.00
17296;DHT22;8766;51.480;6.872;2022-12-20T16:13:47;11.40;74.00
17296;DHT22;8766;51.480;6.872;2022-12-20T16:16:17;11.40;74.00
17296;DHT22;8766;51.480;6.872;2022-12-20T16:18:45;11.40;74.00
17296;DHT22;8766;51.480;6.872;2022-12-20T16:21:15;11.40;74.00
17296;DHT22;8766;51.480;6.872;2022-12-20T16:23:43;11.40;74.00
17296;DHT22;8766;51.480;6.872;2022-12-20T16:26:12;11.40;74.00
17296;DHT22;8766;51.480;6.872;2022-12-20T16:28:39;11.40;74.00
17296;DHT22;8766;51.480;6.872;2022-12-20T16:31:16;11.40;74.00
17296;DHT22;8766;51.480;6.872;2022-12-20T16:33:47;11.50;74.10
17296;DHT22;8766;51.480;6.872;2022-12-20T16:36:14;11.50;74.70
17296;DHT22;8766;51.480;6.872;2022-12-20T16:38:41;11.50;74.10